Time;durP1;ratioP1;P1;durP2;ratioP2;P2;SDS_P1;SDS_P2;PMS_P1;PMS_P2;Temp;Humidity;BMP_temperature;BMP_pressure;BME280_temperature;BME280_humidity;BME280_pressure;Samples;Min_cycle;Max_cycle;Signal;HPM_P1;HPM_P2
2022/05/10 00:00:54;;;;;;;1999.90;999.90;;;;;;;16.85;57.69;95977.50;5012925;28;20037;-73
2022/05/10 00:03:21;;;;;;;1999.90;999.90;;;;;;;16.86;57.87;95978.31;4995539;28;20065;-73
2022/05/10 00:05:47;;;;;;;1999.90;999.90;;;;;;;16.83;57.55;95966.28;5012765;28;20049;-73
2022/05/10 00:08:16;;;;;;;1999.90;999.90;;;;;;;16.47;57.74;95918.38;5012510;28;20487;-73
2022/05/10 00:10:44;;;;;;;1999.90;999.90;;;;;;;16.57;57.59;95936.81;5012658;28;20117;-73
2022/05/10 00:13:11;;;;;;;1999.90;999.90;;;;;;;16.71;57.68;95968.88;4995261;28;20470;-73
2022/05/10 00:15:39;;;;;;;1999.90;999.90;;;;;;;16.69;57.70;95972.97;5012682;28;20136;-73
2022/05/10 00:18:04;;;;;;;1999.90;999.90;;;;;;;16.46;57.73;95943.66;5012083;28;20037;-73
2022/05/10 00:20:30;;;;;;;1999.90;999.90;;;;;;;16.27;57.76;95905.66;5012490;28;20524;-73
2022/05/10 00:22:55;;;;;;;1999.90;999.90;;;;;;;16.43;57.89;95944.31;4994737;28;20030;-73
2022/05/10 00:25:27;;;;;;;1999.90;999.90;;;;;;;16.55;57.69;95963.22;5012689;28;20037;-75
2022/05/10 00:27:53;;;;;;;1999.90;999.90;;;;;;;16.33;57.59;95934.72;5012285;28;20022;-73
2022/05/10 00:30:18;;;;;;;1999.90;999.90;;;;;;;16.24;57.89;95922.44;5012209;28;20048;-73
2022/05/10 00:32:45;;;;;;;1999.90;999.90;;;;;;;16.39;57.63;95943.38;4994502;28;20053;-73
2022/05/10 00:35:15;;;;;;;1999.90;999.90;;;;;;;16.22;57.85;95913.88;5011411;28;20018;-73
2022/05/10 00:37:42;;;;;;;1999.90;999.90;;;;;;;16.38;57.72;95947.19;5012359;28;20099;-73
2022/05/10 00:40:09;;;;;;;1999.90;999.90;;;;;;;16.32;57.47;95935.00;5011901;28;20024;-73
2022/05/10 00:42:50;;;;;;;1999.90;999.90;;;;;;;16.21;57.70;95923.84;5011814;28;20526;-73
2022/05/10 00:45:22;;;;;;;1999.90;999.90;;;;;;;16.10;58.12;95907.28;5012206;28;20029;-73
2022/05/10 00:48:26;;;;;;;1999.90;999.90;;;;;;;16.28;57.96;95929.53;5012080;28;20022;-73
2022/05/10 00:50:58;;;;;;;1999.90;999.90;;;;;;;16.07;58.55;95905.25;5012077;28;20041;-73
2022/05/10 00:53:31;;;;;;;1999.90;999.90;;;;;;;16.05;58.30;95907.47;5011652;28;20542;-73
2022/05/10 00:56:02;;;;;;;1999.90;999.90;;;;;;;15.81;58.39;95872.31;4994353;28;20406;-73
2022/05/10 00:58:57;;;;;;;1999.90;999.90;;;;;;;16.21;58.32;95937.25;5011402;28;20014;-73
2022/05/10 01:01:29;;;;;;;1999.90;999.90;;;;;;;16.19;58.51;95927.97;5011671;28;20383;-73
2022/05/10 01:04:07;;;;;;;;;;;;;;;16.18;58.48;95934.44;5012296;28;20022;-73
2022/05/10 01:06:39;;;;;;;1999.90;999.90;;;;;;;16.11;58.83;95926.88;5011691;28;19920;-72
2022/05/10 01:09:08;;;;;;;1999.90;999.90;;;;;;;16.18;58.61;95927.19;5011411;28;20030;-73
2022/05/10 01:11:50;;;;;;;1999.90;999.90;;;;;;;16.03;58.59;95908.91;5012008;28;20068;-72
2022/05/10 01:14:21;;;;;;;1999.90;999.90;;;;;;;16.10;58.83;95922.59;5011574;28;20051;-73
2022/05/10 01:16:47;;;;;;;1999.90;999.90;;;;;;;16.03;58.43;95908.91;5011376;28;20061;-73
2022/05/10 01:19:14;;;;;;;1999.90;999.90;;;;;;;16.04;58.16;95915.84;5010952;28;20056;-73
2022/05/10 01:22:32;;;;;;;1999.90;999.90;;;;;;;16.06;58.53;95921.66;5011410;28;20065;-73
2022/05/10 01:25:05;;;;;;;1999.90;999.90;;;;;;;15.79;57.98;95887.94;4970599;28;20144;-73
2022/05/10 01:27:43;;;;;;;1999.90;999.90;;;;;;;16.01;58.34;95917.25;5011453;28;20080;-73
2022/05/10 01:30:16;;;;;;;1999.90;999.90;;;;;;;15.95;58.51;95918.53;5011025;28;20098;-73
2022/05/10 01:33:42;;;;;;;1999.90;999.90;;;;;;;15.91;58.49;95920.28;5011150;28;20036;-74
2022/05/10 01:36:10;;;;;;;1999.90;999.90;;;;;;;15.75;58.57;95897.75;5000446;28;20026;-73
2022/05/10 01:39:04;;;;;;;1999.90;999.90;;;;;;;15.86;58.57;95925.81;5010808;28;20459;-74
2022/05/10 01:41:42;;;;;;;1999.90;999.90;;;;;;;15.80;58.79;95919.81;5011344;28;20090;-73
2022/05/10 01:44:13;;;;;;;1999.90;999.90;;;;;;;15.77;58.60;95917.00;5011305;28;20076;-73
2022/05/10 01:46:39;;;;;;;1999.90;999.90;;;;;;;15.73;58.70;95918.72;5010820;28;20029;-73
2022/05/10 01:49:32;;;;;;;1999.90;999.90;;;;;;;15.53;58.83;95890.66;4993062;28;20174;-74
2022/05/10 01:52:09;;;;;;;1999.90;999.90;;;;;;;15.65;58.76;95916.84;5011040;28;20086;-72
2022/05/10 01:54:34;;;;;;;1999.90;999.90;;;;;;;15.66;58.69;95911.19;5011018;28;20032;-73
2022/05/10 01:57:00;;;;;;;1999.90;999.90;;;;;;;15.59;58.63;95902.78;5011087;28;20022;-73
2022/05/10 01:59:25;;;;;;;1999.90;999.90;;;;;;;15.37;58.92;95874.25;5010646;28;20471;-73
2022/05/10 02:01:54;;;;;;;1999.90;999.90;;;;;;;15.47;59.05;95898.06;5010718;28;20693;-73
2022/05/10 02:04:28;;;;;;;1999.90;999.90;;;;;;;15.43;58.55;95899.78;5010782;28;20489;-72
2022/05/10 02:07:23;;;;;;;1999.90;999.90;;;;;;;15.55;58.91;95918.69;5010683;28;20022;-73
2022/05/10 02:09:59;;;;;;;1999.90;999.90;;;;;;;15.48;59.28;95925.66;5005302;28;20513;-73
2022/05/10 02:12:38;;;;;;;1999.90;999.90;;;;;;;15.35;59.38;95919.34;5010548;28;20110;-73
2022/05/10 02:15:13;;;;;;;1999.90;999.90;;;;;;;15.02;60.45;95917.09;5010676;28;20040;-73
2022/05/10 02:17:54;;;;;;;1999.90;999.90;;;;;;;15.09;60.41;95932.72;5010507;28;20026;-73
2022/05/10 02:20:33;;;;;;;1999.90;999.90;;;;;;;15.11;60.93;95930.53;5010062;28;20469;-73
2022/05/10 02:23:07;;;;;;;1999.90;999.90;;;;;;;15.13;60.25;95930.97;5010444;28;20026;-74
2022/05/10 02:25:38;;;;;;;1999.90;999.90;;;;;;;15.17;60.53;95926.59;5010475;28;20028;-73
2022/05/10 02:28:30;;;;;;;1999.90;999.90;;;;;;;15.04;60.52;95927.50;5010173;28;20026;-73
2022/05/10 02:31:00;;;;;;;1999.90;999.90;;;;;;;15.14;60.22;95937.13;4997305;28;20124;-73
2022/05/10 02:33:29;;;;;;;1999.90;999.90;;;;;;;15.03;59.99;95932.06;5010343;28;20026;-73
2022/05/10 02:36:00;;;;;;;1999.90;999.90;;;;;;;14.91;60.56;95939.94;5010200;28;20489;-73
2022/05/10 02:38:31;;;;;;;1999.90;999.90;;;;;;;15.03;60.20;95939.31;5009781;28;20072;-72
2022/05/10 02:40:59;;;;;;;1999.90;999.90;;;;;;;15.11;59.81;95940.44;5010078;28;20143;-73
2022/05/10 02:43:31;;;;;;;1999.90;999.90;;;;;;;15.14;59.78;95940.59;5010159;28;20445;-74
2022/05/10 02:45:56;;;;;;;;;;;;;;;15.14;59.57;95937.91;5010609;28;20029;-71
2022/05/10 02:48:23;;;;;;;1999.90;999.90;;;;;;;15.10;59.45;95918.22;5009909;28;19917;-74
2022/05/10 02:50:49;;;;;;;1999.90;999.90;;;;;;;15.00;58.85;95902.47;5010240;28;20029;-72
2022/05/10 02:53:15;;;;;;;1999.90;999.90;;;;;;;15.08;58.88;95912.38;5010177;28;20030;-73
2022/05/10 02:55:51;;;;;;;1999.90;999.90;;;;;;;14.99;58.82;95895.50;4992534;28;20501;-73
2022/05/10 02:58:35;;;;;;;1999.90;999.90;;;;;;;15.22;58.75;95936.38;4995111;28;20121;-73
2022/05/10 03:01:09;;;;;;;1999.90;999.90;;;;;;;15.07;58.68;95918.84;5013223;28;20037;-73
2022/05/10 03:03:35;;;;;;;1999.90;999.90;;;;;;;14.94;58.48;95901.78;5013235;28;20038;-73
2022/05/10 03:06:00;;;;;;;1999.90;999.90;;;;;;;14.98;58.59;95913.47;5014153;28;20026;-73
2022/05/10 03:08:26;;;;;;;1999.90;999.90;;;;;;;15.09;58.81;95935.38;5013500;28;20068;-72
2022/05/10 03:10:51;;;;;;;1999.90;999.90;;;;;;;14.94;58.94;95907.16;5013884;28;20026;-72
2022/05/10 03:13:17;;;;;;;1999.90;999.90;;;;;;;14.76;58.85;95884.91;5013791;28;20072;-73
2022/05/10 03:15:42;;;;;;;1999.90;999.90;;;;;;;15.07;59.01;95942.97;5013787;28;20029;-72
2022/05/10 03:18:08;;;;;;;1999.90;999.90;;;;;;;14.73;58.94;95890.09;5013436;28;20105;-73
2022/05/10 03:20:33;;;;;;;1999.90;999.90;;;;;;;15.08;58.96;95944.53;5013799;28;20034;-73
2022/05/10 03:22:59;;;;;;;1999.90;999.90;;;;;;;15.06;58.71;95949.44;5013643;28;20029;-73
2022/05/10 03:25:25;;;;;;;1999.90;999.90;;;;;;;14.90;58.91;95916.16;5013819;28;20036;-73
2022/05/10 03:27:51;;;;;;;1999.90;999.90;;;;;;;14.86;58.98;95909.81;4996528;28;20045;-74
2022/05/10 03:30:17;;;;;;;1999.90;999.90;;;;;;;15.06;59.11;95946.75;4995769;28;20049;-72
2022/05/10 03:32:43;;;;;;;1999.90;999.90;;;;;;;14.80;58.73;95914.53;5013397;28;20410;-73
2022/05/10 03:35:09;;;;;;;1999.90;999.90;;;;;;;14.89;58.89;95917.22;5013440;28;20022;-73
2022/05/10 03:37:34;;;;;;;1999.90;999.90;;;;;;;14.97;59.42;95929.84;5013360;28;20022;-73
2022/05/10 03:39:59;;;;;;;1999.90;999.90;;;;;;;14.83;59.25;95909.34;5013007;28;20049;-73
2022/05/10 03:42:25;;;;;;;1999.90;999.90;;;;;;;14.95;59.16;95926.72;5013197;28;20026;-71
2022/05/10 03:44:54;;;;;;;1999.90;999.90;;;;;;;15.08;59.06;95939.97;5013573;28;20033;-73
2022/05/10 03:47:26;;;;;;;1999.90;999.90;;;;;;;15.11;59.02;95940.44;5013256;28;20368;-73
2022/05/10 03:49:53;;;;;;;;;;;;;;;15.12;59.05;95934.00;5013490;28;20026;-70
2022/05/10 03:52:19;;;;;;;1999.90;999.90;;;;;;;14.84;59.17;95894.06;5013242;28;20239;-73
2022/05/10 03:54:44;;;;;;;1999.90;999.90;;;;;;;15.16;59.21;95946.44;5013123;28;20084;-73
2022/05/10 03:57:10;;;;;;;1999.90;999.90;;;;;;;15.20;59.00;95942.03;5013139;28;20030;-73
2022/05/10 03:59:41;;;;;;;1999.90;999.90;;;;;;;15.01;59.06;95904.81;4995176;28;20109;-75
2022/05/10 04:02:07;;;;;;;1999.90;999.90;;;;;;;15.25;58.99;95933.84;5013169;28;20501;-75
2022/05/10 04:04:32;;;;;;;1999.90;999.90;;;;;;;15.13;59.50;95909.53;5013042;28;20095;-69
2022/05/10 04:06:58;;;;;;;1999.90;999.90;;;;;;;14.67;59.15;95816.38;5013038;28;20519;-77
2022/05/10 04:09:23;;;;;;;1999.90;999.90;;;;;;;15.30;59.58;95903.41;5014252;28;20045;-75
2022/05/10 04:11:51;;;;;;;1999.90;999.90;;;;;;;15.58;59.06;95925.34;5012421;28;20026;-74
2022/05/10 04:14:16;;;;;;;1999.90;999.90;;;;;;;15.59;59.24;95911.59;4995608;28;20042;-75
2022/05/10 04:16:43;;;;;;;1999.90;999.90;;;;;;;15.64;59.19;95902.66;5013318;28;20029;-75
2022/05/10 04:19:09;;;;;;;1999.90;999.90;;;;;;;15.77;59.07;95898.22;5012941;28;20092;-74
2022/05/10 04:21:34;;;;;;;1999.90;999.90;;;;;;;15.99;58.82;95908.75;5012902;28;20080;-76
2022/05/10 04:24:00;;;;;;;1999.90;999.90;;;;;;;16.23;58.51;95923.53;5013099;28;20033;-74
2022/05/10 04:26:25;;;;;;;1999.90;999.90;;;;;;;16.45;58.12;95931.34;5012446;28;20504;-73
2022/05/10 04:28:51;;;;;;;1999.90;999.90;;;;;;;16.34;57.71;95876.44;5013128;28;20026;-74
2022/05/10 04:31:17;;;;;;;1999.90;999.90;;;;;;;16.64;57.10;95902.19;5013000;28;20030;-74
2022/05/10 04:33:43;;;;;;;1999.90;999.90;;;;;;;16.82;56.45;95904.81;5012867;28;20386;-76
2022/05/10 04:36:08;;;;;;;1999.90;999.90;;;;;;;17.17;55.86;95937.66;5012772;28;20378;-75
2022/05/10 04:38:34;;;;;;;1999.90;999.90;;;;;;;16.72;55.42;95840.72;5012597;28;20045;-70
2022/05/10 04:43:43;;;;;;;1999.90;999.90;;;;;;;17.59;54.76;95937.66;5012747;28;20455;-70
2022/05/10 04:46:09;;;;;;;1999.90;999.90;;;;;;;17.54;54.05;95910.97;5011835;28;20030;-74
2022/05/10 04:48:34;;;;;;;1999.90;999.90;;;;;;;17.91;53.97;95941.53;5011916;28;20048;-75
2022/05/10 04:51:00;;;;;;;1999.90;999.90;;;;;;;17.99;53.39;95939.88;5012187;28;20057;-76
2022/05/10 04:53:26;;;;;;;1999.90;999.90;;;;;;;18.15;53.36;95930.06;5011042;28;20046;-74
2022/05/10 04:55:51;;;;;;;1999.90;999.90;;;;;;;18.35;52.99;95925.72;5011507;28;20061;-77
2022/05/10 04:58:17;;;;;;;1999.90;999.90;;;;;;;18.50;52.52;95930.47;5011420;28;20045;-74
2022/05/10 05:00:42;;;;;;;1999.90;999.90;;;;;;;18.44;52.11;95904.88;5008673;28;20026;-73
2022/05/10 05:03:08;;;;;;;1999.90;999.90;;;;;;;18.56;51.91;95906.78;5010479;28;20037;-69
2022/05/10 05:05:33;;;;;;;1999.90;999.90;;;;;;;18.61;51.75;95891.19;5010810;28;20032;-71
2022/05/10 05:07:59;;;;;;;1999.90;999.90;;;;;;;18.84;51.43;95898.84;5008218;28;20052;-77
2022/05/10 05:10:24;;;;;;;1999.90;999.90;;;;;;;19.14;51.27;95927.13;5010541;28;20069;-73
2022/05/10 05:12:50;;;;;;;1999.90;999.90;;;;;;;19.29;50.82;95932.94;5010036;28;20038;-68
2022/05/10 05:15:16;;;;;;;1999.90;999.90;;;;;;;19.22;50.58;95912.72;4991838;28;20026;-70
2022/05/10 05:17:41;;;;;;;1999.90;999.90;;;;;;;19.29;50.70;95893.25;5011261;28;20061;-71
2022/05/10 05:20:08;;;;;;;1999.90;999.90;;;;;;;19.51;50.10;95920.88;5009081;28;20038;-71
2022/05/10 05:22:33;;;;;;;1999.90;999.90;;;;;;;19.56;50.18;95909.84;5008205;28;20478;-80
2022/05/10 05:24:59;;;;;;;1999.90;999.90;;;;;;;19.69;50.11;95922.97;4997730;28;20079;-74
2022/05/10 05:27:24;;;;;;;1999.90;999.90;;;;;;;19.25;49.60;95840.34;5009079;28;20026;-82
2022/05/10 05:29:50;;;;;;;1999.90;999.90;;;;;;;19.63;49.00;95894.66;5008894;28;20029;-74
2022/05/10 05:32:19;;;;;;;1999.90;999.90;;;;;;;19.86;49.01;95934.59;5009896;28;20114;-72
2022/05/10 05:34:45;;;;;;;1999.90;999.90;;;;;;;19.69;49.09;95922.19;5013445;28;20494;-74
2022/05/10 05:39:54;;;;;;;1999.90;999.90;;;;;;;19.47;49.35;95915.38;5009280;28;20037;-72
2022/05/10 05:42:19;;;;;;;1999.90;999.90;;;;;;;19.63;49.43;95927.03;5008373;28;20026;-71
2022/05/10 05:44:45;;;;;;;1999.90;999.90;;;;;;;19.84;49.58;95947.66;5009325;28;20052;-71
2022/05/10 05:47:10;;;;;;;1999.90;999.90;;;;;;;19.67;49.77;95910.94;5009232;28;20022;-76
2022/05/10 05:49:36;;;;;;;1999.90;999.90;;;;;;;19.93;49.60;95945.59;4992996;28;20029;-75
2022/05/10 05:52:02;;;;;;;1999.90;999.90;;;;;;;20.03;49.54;95941.63;4990487;28;20022;-76
2022/05/10 05:54:28;;;;;;;1999.90;999.90;;;;;;;19.91;49.29;95923.53;4992618;28;20026;-76
2022/05/10 05:57:00;;;;;;;1999.90;999.90;;;;;;;19.99;49.47;95934.19;5007856;28;21788;-75
2022/05/10 05:59:26;;;;;;;1999.90;999.90;;;;;;;19.92;48.70;95925.13;5009037;28;20509;-76
2022/05/10 06:01:52;;;;;;;1999.90;999.90;;;;;;;20.19;48.53;95948.63;4989068;28;20096;-76
2022/05/10 06:04:17;;;;;;;1999.90;999.90;;;;;;;20.24;48.58;95956.47;4990979;28;20022;-77
2022/05/10 06:06:43;;;;;;;1999.90;999.90;;;;;;;20.35;48.35;95951.34;4991720;28;20117;-74
2022/05/10 06:09:08;;;;;;;1999.90;999.90;;;;;;;20.21;48.69;95911.22;5008390;28;20630;-74
2022/05/10 06:11:34;;;;;;;1999.90;999.90;;;;;;;20.33;48.07;95928.53;4991914;28;20117;-77
2022/05/10 06:14:00;;;;;;;1999.90;999.90;;;;;;;20.45;48.42;95939.25;5010309;28;20057;-76
2022/05/10 06:16:26;;;;;;;1999.90;999.90;;;;;;;20.61;48.38;95937.38;5009045;28;20030;-74
2022/05/10 06:18:51;;;;;;;1999.90;999.90;;;;;;;20.51;47.88;95917.03;5009765;28;20561;-73
2022/05/10 06:21:16;;;;;;;1999.90;999.90;;;;;;;20.74;47.91;95930.75;5008949;28;20084;-74
2022/05/10 06:23:42;;;;;;;1999.90;999.90;;;;;;;21.05;47.90;95961.59;5009262;28;20038;-75
2022/05/10 06:26:08;;;;;;;1999.90;999.90;;;;;;;21.00;47.79;95922.09;5010132;28;20028;-76
2022/05/10 06:28:33;;;;;;;1999.90;999.90;;;;;;;21.27;47.42;95949.34;4991948;28;20021;-77
2022/05/10 06:31:01;;;;;;;1999.90;999.90;;;;;;;21.20;47.47;95922.91;4992095;28;20056;-78
2022/05/10 06:33:27;;;;;;;1999.90;999.90;;;;;;;21.50;46.74;95958.41;5009843;28;20817;-78
2022/05/10 06:35:53;;;;;;;1999.90;999.90;;;;;;;21.37;46.47;95935.28;5010122;28;20109;-78
2022/05/10 06:38:27;;;;;;;1999.90;999.90;;;;;;;20.13;48.10;95887.09;5009644;28;20030;-78
2022/05/10 06:40:53;;;;;;;1999.90;999.90;;;;;;;21.03;47.54;95951.13;5009853;28;20018;-77
2022/05/10 06:43:19;;;;;;;1999.90;999.90;;;;;;;21.35;46.88;95937.56;5010017;28;20060;-77
2022/05/10 06:45:45;;;;;;;1999.90;999.90;;;;;;;20.32;47.36;95952.06;5009990;28;20964;-77
2022/05/10 06:48:10;;;;;;;1999.90;999.90;;;;;;;19.61;50.28;95942.00;5009473;28;20030;-77
2022/05/10 06:50:37;;;;;;;1999.90;999.90;;;;;;;20.89;47.91;95944.63;5009943;28;20548;-77
2022/05/10 06:53:03;;;;;;;1999.90;999.90;;;;;;;21.35;46.98;95955.75;5010042;28;20061;-77
2022/05/10 06:55:31;;;;;;;1999.90;999.90;;;;;;;21.60;46.61;95959.78;5009759;28;20101;-78
2022/05/10 06:57:57;;;;;;;1999.90;999.90;;;;;;;20.41;47.99;95949.97;5009616;28;20022;-75
2022/05/10 07:00:22;;;;;;;1999.90;999.90;;;;;;;20.40;48.36;95948.41;5009943;28;20412;-77
2022/05/10 07:02:48;;;;;;;1999.90;999.90;;;;;;;19.56;49.75;95934.91;5009656;28;20022;-77
2022/05/10 07:05:15;;;;;;;1999.90;999.90;;;;;;;19.44;50.56;95943.00;5009992;28;20478;-74
2022/05/10 07:07:40;;;;;;;1999.90;999.90;;;;;;;19.28;51.33;95952.94;5010248;28;20014;-76
2022/05/10 07:10:10;;;;;;;1999.90;999.90;;;;;;;20.20;49.06;95933.19;4998100;28;20033;-76
2022/05/10 07:12:40;;;;;;;1999.90;999.90;;;;;;;20.28;48.85;95928.78;5009898;28;20018;-77
2022/05/10 07:15:09;;;;;;;1999.90;999.90;;;;;;;20.37;49.46;95940.19;5008765;28;20367;-75
2022/05/10 07:17:37;;;;;;;1999.90;999.90;;;;;;;21.01;48.07;95945.28;5010201;28;20030;-76
2022/05/10 07:20:04;;;;;;;1999.90;999.90;;;;;;;21.25;47.14;95919.16;5008254;28;20590;-75
2022/05/10 07:22:30;;;;;;;1999.90;999.90;;;;;;;21.60;46.62;95916.44;5009534;28;20030;-76
2022/05/10 07:24:55;;;;;;;1999.90;999.90;;;;;;;20.97;47.90;95943.63;5008579;28;20026;-75
2022/05/10 07:27:20;;;;;;;1999.90;999.90;;;;;;;20.20;49.28;95938.59;5009544;28;20022;-76
2022/05/10 07:29:46;;;;;;;1999.90;999.90;;;;;;;20.69;48.15;95898.56;5008170;28;20038;-75
2022/05/10 07:32:14;;;;;;;1999.90;999.90;;;;;;;21.58;46.20;95913.31;5009846;28;20030;-76
2022/05/10 07:34:40;;;;;;;1999.90;999.90;;;;;;;21.48;46.36;95920.06;5009519;28;20026;-75
2022/05/10 07:37:06;;;;;;;1999.90;999.90;;;;;;;20.87;48.03;95925.22;5008626;28;20015;-76
2022/05/10 07:39:31;;;;;;;1999.90;999.90;;;;;;;20.16;49.04;95924.22;5008133;28;20028;-77
2022/05/10 07:41:59;;;;;;;1999.90;999.90;;;;;;;20.08;49.79;95920.56;5009802;28;20028;-76
2022/05/10 07:44:25;;;;;;;1999.90;999.90;;;;;;;20.56;48.68;95921.41;5012711;28;20463;-76
2022/05/10 07:46:50;;;;;;;1999.90;999.90;;;;;;;20.62;48.38;95919.22;5011851;28;20061;-76
2022/05/10 07:49:16;;;;;;;1999.90;999.90;;;;;;;20.67;47.47;95903.53;5012293;28;20061;-76
2022/05/10 07:51:41;;;;;;;1999.90;999.90;;;;;;;21.05;47.18;95934.56;5013179;28;20061;-75
2022/05/10 07:54:07;;;;;;;1999.90;999.90;;;;;;;21.02;46.61;95914.38;5013398;28;20026;-74
2022/05/10 07:56:32;;;;;;;1999.90;999.90;;;;;;;20.77;46.96;95924.63;5012095;28;20030;-75
2022/05/10 07:58:58;;;;;;;1999.90;999.90;;;;;;;21.56;45.61;95926.41;5013103;28;20064;-75
2022/05/10 08:01:25;;;;;;;1999.90;999.90;;;;;;;22.31;44.67;95915.09;5011638;28;20022;-76
2022/05/10 08:03:51;;;;;;;1999.90;999.90;;;;;;;22.88;44.15;95922.63;5012346;28;20511;-75
2022/05/10 08:06:17;;;;;;;1999.90;999.90;;;;;;;22.90;43.66;95866.13;5011792;28;20025;-75
2022/05/10 08:08:42;;;;;;;1999.90;999.90;;;;;;;23.55;43.50;95925.56;5011370;28;20022;-76
2022/05/10 08:11:08;;;;;;;1999.90;999.90;;;;;;;23.68;42.53;95899.75;5011536;28;20083;-75
2022/05/10 08:13:34;;;;;;;1999.90;999.90;;;;;;;23.84;40.62;95916.63;5011855;28;20065;-76
2022/05/10 08:16:00;;;;;;;1999.90;999.90;;;;;;;23.65;39.92;95889.66;5011562;28;20529;-75
2022/05/10 08:18:27;;;;;;;1999.90;999.90;;;;;;;23.74;39.75;95909.13;5011204;28;20030;-75
2022/05/10 08:20:55;;;;;;;1999.90;999.90;;;;;;;22.26;42.11;95884.81;5010964;28;20602;-76
2022/05/10 08:23:25;;;;;;;1999.90;999.90;;;;;;;22.41;42.59;95888.56;5012749;28;20425;-77
2022/05/10 08:25:55;;;;;;;1999.90;999.90;;;;;;;21.92;43.97;95910.88;5012666;28;20033;-75
2022/05/10 08:28:22;;;;;;;1999.90;999.90;;;;;;;22.73;41.82;95908.84;5010945;28;20029;-76
2022/05/10 08:30:48;;;;;;;1999.90;999.90;;;;;;;22.19;43.66;95906.38;5012828;28;20109;-76
2022/05/10 08:33:29;;;;;;;1999.90;999.90;;;;;;;22.12;44.09;95915.16;5012718;28;20514;-76
2022/05/10 08:35:56;;;;;;;1999.90;999.90;;;;;;;22.07;43.31;95891.03;5011953;28;20029;-76
2022/05/10 08:38:22;;;;;;;1999.90;999.90;;;;;;;22.70;42.23;95901.44;5011000;28;20037;-76
2022/05/10 08:41:04;;;;;;;1999.90;999.90;;;;;;;22.94;41.78;95910.38;5012480;28;20159;-75
2022/05/10 08:43:38;;;;;;;1999.90;999.90;;;;;;;23.53;40.69;95912.34;5011096;28;20034;-74
2022/05/10 08:46:06;;;;;;;1999.90;999.90;;;;;;;24.03;40.74;95899.38;5011053;28;20118;-76
2022/05/10 08:48:32;;;;;;;1999.90;999.90;;;;;;;23.72;40.32;95907.97;5010712;28;20033;-76
2022/05/10 08:50:58;;;;;;;1999.90;999.90;;;;;;;22.53;42.13;95897.31;5011576;28;20471;-76
2022/05/10 08:53:24;;;;;;;1999.90;999.90;;;;;;;22.73;41.68;95906.16;5012525;28;20394;-76
2022/05/10 08:56:01;;;;;;;1999.90;999.90;;;;;;;22.43;42.07;95886.28;5011195;28;20036;-76
2022/05/10 08:58:32;;;;;;;1999.90;999.90;;;;;;;23.77;40.50;95900.25;5011608;28;20022;-76
2022/05/10 09:01:02;;;;;;;1999.90;999.90;;;;;;;23.82;39.97;95899.94;5010836;28;20116;-74
2022/05/10 09:03:27;;;;;;;1999.90;999.90;;;;;;;23.42;40.99;95899.78;5010580;28;20036;-76
2022/05/10 09:05:59;;;;;;;1999.90;999.90;;;;;;;23.52;40.66;95875.47;5009713;28;20021;-76
2022/05/10 09:08:52;;;;;;;1999.90;999.90;;;;;;;22.71;40.66;95872.38;5011552;28;20037;-76
2022/05/10 09:11:18;;;;;;;1999.90;999.90;;;;;;;23.84;38.31;95881.31;5011793;28;20033;-75
2022/05/10 09:13:45;;;;;;;1999.90;999.90;;;;;;;23.26;38.91;95900.75;5011853;28;20055;-76
2022/05/10 09:16:12;;;;;;;1999.90;999.90;;;;;;;23.93;38.16;95866.66;4994601;28;20061;-76
2022/05/10 09:18:49;;;;;;;1999.90;999.90;;;;;;;23.52;37.74;95896.44;5011059;28;20041;-76
2022/05/10 09:21:22;;;;;;;1999.90;999.90;;;;;;;23.79;38.43;95895.22;5011207;28;20088;-77
2022/05/10 09:24:33;;;;;;;1999.90;999.90;;;;;;;24.15;37.51;95895.63;5011703;28;20021;-76
2022/05/10 09:27:09;;;;;;;1999.90;999.90;;;;;;;24.75;36.66;95895.41;5003219;28;20049;-75
2022/05/10 09:29:44;;;;;;;1999.90;999.90;;;;;;;25.11;36.37;95888.31;5011399;28;20060;-76
2022/05/10 09:35:09;;;;;;;1999.90;999.90;;;;;;;25.13;34.51;95877.84;5011274;28;20037;-76
2022/05/10 09:38:01;;;;;;;1999.90;999.90;;;;;;;25.29;34.66;95888.44;5011532;28;20033;-75
2022/05/10 09:40:42;;;;;;;1999.90;999.90;;;;;;;25.45;34.41;95881.88;5005111;28;20026;-76
2022/05/10 09:43:14;;;;;;;1999.90;999.90;;;;;;;24.68;35.43;95892.66;5011345;28;20493;-76
2022/05/10 09:45:39;;;;;;;1999.90;999.90;;;;;;;23.89;35.68;95846.81;4993805;28;20038;-77
2022/05/10 09:48:08;;;;;;;1999.90;999.90;;;;;;;23.94;35.55;95890.75;5011227;28;20153;-76
2022/05/10 09:50:34;;;;;;;1999.90;999.90;;;;;;;23.10;37.30;95902.84;4992880;28;20029;-76
2022/05/10 09:53:33;;;;;;;1999.90;999.90;;;;;;;23.12;36.62;95897.81;5011095;28;20052;-76
2022/05/10 09:56:03;;;;;;;1999.90;999.90;;;;;;;24.06;35.17;95887.00;4993321;28;20018;-76
2022/05/10 09:58:31;;;;;;;1999.90;999.90;;;;;;;23.97;35.16;95868.28;4992785;28;20030;-78
2022/05/10 10:00:59;;;;;;;1999.90;999.90;;;;;;;24.94;34.08;95885.44;4993360;28;20030;-78
2022/05/10 10:03:37;;;;;;;1999.90;999.90;;;;;;;24.88;33.97;95883.09;5011026;28;20478;-76
2022/05/10 10:06:20;;;;;;;1999.90;999.90;;;;;;;23.35;36.17;95884.97;4992377;28;20034;-75
2022/05/10 10:08:49;;;;;;;1999.90;999.90;;;;;;;23.21;36.38;95871.22;5009497;28;20056;-76
2022/05/10 10:11:26;;;;;;;1999.90;999.90;;;;;;;24.73;34.16;95881.41;5009412;28;20068;-75
2022/05/10 10:14:04;;;;;;;1999.90;999.90;;;;;;;25.02;33.00;95854.38;5010498;28;20113;-76
2022/05/10 10:16:41;;;;;;;1999.90;999.90;;;;;;;25.49;33.52;95879.94;5010692;28;20028;-75
2022/05/10 10:19:27;;;;;;;1999.90;999.90;;;;;;;25.84;32.86;95855.59;4992269;28;20033;-75
2022/05/10 10:22:05;;;;;;;1999.90;999.90;;;;;;;25.15;32.13;95870.06;5009783;28;20025;-73
2022/05/10 10:24:46;;;;;;;1999.90;999.90;;;;;;;25.99;31.35;95866.53;4992853;28;20029;-74
2022/05/10 10:27:22;;;;;;;1999.90;999.90;;;;;;;26.07;30.61;95840.84;5010316;28;20026;-75
2022/05/10 10:29:56;;;;;;;1999.90;999.90;;;;;;;26.09;31.20;95849.41;5009786;28;20029;-74
2022/05/10 10:32:29;;;;;;;1999.90;999.90;;;;;;;26.13;31.16;95840.06;5010005;28;20466;-74
2022/05/10 10:35:22;;;;;;;1999.90;999.90;;;;;;;25.61;30.92;95863.28;5026517;23;20054;-68
2022/05/10 10:37:57;;;;;;;1999.90;999.90;;;;;;;24.69;32.95;95858.06;4992302;28;20029;-69
2022/05/10 10:40:39;;;;;;;1999.90;999.90;;;;;;;24.80;33.36;95854.25;5009890;28;20363;-69
2022/05/10 10:43:13;;;;;;;1999.90;999.90;;;;;;;24.83;33.09;95864.38;4992058;28;20596;-69
2022/05/10 10:45:52;;;;;;;1999.90;999.90;;;;;;;24.65;32.05;95792.75;5009981;28;20172;-67
2022/05/10 10:48:28;;;;;;;1999.90;999.90;;;;;;;25.71;32.82;95859.03;5009477;28;20018;-69
2022/05/10 10:50:55;;;;;;;1999.90;999.90;;;;;;;26.14;31.44;95851.75;5008921;28;20052;-68
2022/05/10 10:53:24;;;;;;;1999.90;999.90;;;;;;;26.31;29.78;95852.94;5009689;28;20026;-67
2022/05/10 10:56:07;;;;;;;1999.90;999.90;;;;;;;26.00;31.01;95847.09;5009566;28;20104;-66
2022/05/10 10:59:13;;;;;;;1999.90;999.90;;;;;;;26.14;30.67;95843.59;5009687;28;20014;-67
2022/05/10 11:01:49;;;;;;;1999.90;999.90;;;;;;;26.91;31.14;95844.78;5008780;28;20037;-68
2022/05/10 11:04:33;;;;;;;1999.90;999.90;;;;;;;26.52;31.00;95846.78;5009894;28;20026;-67
2022/05/10 11:07:09;;;;;;;1999.90;999.90;;;;;;;26.04;30.42;95817.09;4991207;28;20026;-68
2022/05/10 11:10:09;;;;;;;1999.90;999.90;;;;;;;26.21;30.14;95840.88;4991755;28;20080;-67
2022/05/10 11:13:01;;;;;;;1999.90;999.90;;;;;;;25.84;30.75;95838.44;5009752;28;20394;-67
2022/05/10 11:15:47;;;;;;;1999.90;999.90;;;;;;;25.42;31.98;95839.84;4991609;28;20033;-66
2022/05/10 11:18:21;;;;;;;1999.90;999.90;;;;;;;25.27;32.70;95839.00;4992617;28;20034;-66